Time;durP1;ratioP1;P1;durP2;ratioP2;P2;SDS_P1;SDS_P2;PMS_P1;PMS_P2;Temp;Humidity;BMP_temperature;BMP_pressure;BME280_temperature;BME280_humidity;BME280_pressure;Samples;Min_cycle;Max_cycle;Signal;HPM_P1;HPM_P2
2022/11/23 00:02:25;;;;;;;0.35;0.20;;;8.30;92.80;;;;;;5052803;28;20501;-71
2022/11/23 00:04:50;;;;;;;0.10;0.08;;;8.10;93.10;;;;;;5057285;28;20143;-71
2022/11/23 00:07:16;;;;;;;1.55;0.77;;;8.20;92.80;;;;;;5047872;28;20028;-71
2022/11/23 00:09:42;;;;;;;1.80;0.47;;;8.00;93.60;;;;;;5065879;28;20043;-71
2022/11/23 00:12:07;;;;;;;0.45;0.10;;;7.90;93.40;;;;;;5061762;28;20039;-71
2022/11/23 00:14:33;;;;;;;0.17;0.10;;;8.40;91.90;;;;;;5054320;28;20047;-71
2022/11/23 00:16:59;;;;;;;0.38;0.20;;;8.60;91.50;;;;;;5060942;28;20048;-71
2022/11/23 00:19:24;;;;;;;2.92;0.20;;;8.40;92.60;;;;;;5055996;28;20055;-71
2022/11/23 00:21:50;;;;;;;0.47;0.10;;;8.20;92.50;;;;;;5060185;28;20047;-72
2022/11/23 00:24:15;;;;;;;0.60;0.20;;;8.10;93.20;;;;;;5058843;28;20028;-71
2022/11/23 00:26:41;;;;;;;0.70;0.15;;;7.90;93.40;;;;;;5060457;28;20032;-71
2022/11/23 00:29:07;;;;;;;0.70;0.17;;;7.90;93.10;;;;;;5041383;28;20025;-71
2022/11/23 00:31:32;;;;;;;0.50;0.10;;;8.20;92.30;;;;;;5052822;28;20113;-71
2022/11/23 00:33:58;;;;;;;0.25;0.10;;;8.20;92.30;;;;;;5063036;28;20021;-71
2022/11/23 00:36:25;;;;;;;0.63;0.35;;;8.10;92.60;;;;;;5054806;28;20043;-71
2022/11/23 00:38:53;;;;;;;1.55;0.20;;;8.00;92.80;;;;;;5063570;28;20033;-72
2022/11/23 00:41:21;;;;;;;0.65;0.13;;;8.00;92.50;;;;;;5065402;28;20391;-71
2022/11/23 00:43:47;;;;;;;0.40;0.10;;;8.20;92.20;;;;;;5053268;28;20037;-71
2022/11/23 00:46:13;;;;;;;0.95;0.20;;;8.20;92.10;;;;;;5054073;28;20513;-71
2022/11/23 00:48:38;;;;;;;0.52;0.17;;;8.20;91.90;;;;;;5051647;28;20057;-71
2022/11/23 00:51:06;;;;;;;0.28;0.10;;;8.50;91.70;;;;;;5061440;28;20027;-71
2022/11/23 00:53:33;;;;;;;0.00;0.00;;;8.10;93.00;;;;;;5055689;28;20410;-71
2022/11/23 00:55:58;;;;;;;0.25;0.20;;;8.00;92.50;;;;;;5057543;28;20040;-71
2022/11/23 00:58:25;;;;;;;0.43;0.00;;;7.90;93.00;;;;;;5056920;28;20087;-71
2022/11/23 01:01:19;;;;;;;0.77;0.10;;;7.90;93.20;;;;;;5057436;28;20032;-71
2022/11/23 01:03:47;;;;;;;0.68;0.10;;;7.80;93.30;;;;;;5056358;28;20045;-71
2022/11/23 01:06:20;;;;;;;0.40;0.22;;;7.80;93.10;;;;;;5058773;28;20029;-71
2022/11/23 01:08:54;;;;;;;0.75;0.30;;;7.90;92.90;;;;;;5062199;28;20025;-71
2022/11/23 01:11:21;;;;;;;0.20;0.00;;;7.90;93.20;;;;;;5063032;28;20090;-71
2022/11/23 01:13:47;;;;;;;1.33;0.43;;;8.00;92.90;;;;;;5054130;28;20035;-71
2022/11/23 01:16:16;;;;;;;0.65;0.15;;;7.70;93.40;;;;;;5060431;28;20128;-71
2022/11/23 01:18:41;;;;;;;0.35;0.20;;;8.00;92.60;;;;;;5063548;28;20421;-71
2022/11/23 01:21:07;;;;;;;1.25;0.20;;;7.80;93.30;;;;;;5054676;28;20028;-71
2022/11/23 01:23:33;;;;;;;1.08;0.65;;;7.70;93.20;;;;;;5060594;28;20028;-71
2022/11/23 01:26:09;;;;;;;0.03;0.00;;;7.60;93.60;;;;;;5058670;28;20082;-71
2022/11/23 01:28:37;;;;;;;0.45;0.30;;;7.80;92.80;;;;;;5056465;28;20074;-71
2022/11/23 01:31:07;;;;;;;0.00;0.00;;;7.80;93.20;;;;;;5051353;28;20029;-71
2022/11/23 01:33:34;;;;;;;0.93;0.32;;;7.60;93.80;;;;;;5059640;28;20041;-71
2022/11/23 01:36:00;;;;;;;0.80;0.22;;;7.30;94.50;;;;;;5057181;28;20041;-71
2022/11/23 01:38:26;;;;;;;0.75;0.15;;;7.20;95.00;;;;;;5061691;28;20098;-72
2022/11/23 01:40:51;;;;;;;1.77;0.35;;;7.30;93.80;;;;;;5059867;28;20037;-71
2022/11/23 01:43:17;;;;;;;0.13;0.00;;;7.60;93.20;;;;;;5067062;28;20107;-71
2022/11/23 01:46:04;;;;;;;0.17;0.08;;;7.50;93.60;;;;;;5057914;28;20044;-71
2022/11/23 01:48:43;;;;;;;0.40;0.10;;;7.50;93.90;;;;;;5063293;28;20036;-71
2022/11/23 01:51:13;;;;;;;0.40;0.20;;;7.10;94.50;;;;;;5055191;28;20029;-71
2022/11/23 01:53:40;;;;;;;0.60;0.17;;;7.10;94.40;;;;;;5063153;28;20118;-71
2022/11/23 01:56:08;;;;;;;0.10;0.10;;;7.20;94.20;;;;;;5067322;28;20093;-71
2022/11/23 01:58:38;;;;;;;0.40;0.10;;;7.20;94.10;;;;;;5055612;28;20082;-71
2022/11/23 02:01:05;;;;;;;0.57;0.10;;;7.00;94.70;;;;;;5061999;28;20037;-71
2022/11/23 02:03:31;;;;;;;0.90;0.17;;;7.20;94.40;;;;;;5050619;28;20032;-71
2022/11/23 02:06:01;;;;;;;0.10;0.10;;;7.10;94.10;;;;;;5063717;28;20028;-71
2022/11/23 02:08:28;;;;;;;0.52;0.20;;;7.30;94.10;;;;;;5061278;28;20044;-71
2022/11/23 02:10:56;;;;;;;0.30;0.15;;;7.70;92.80;;;;;;5053538;28;20482;-71
2022/11/23 02:13:23;;;;;;;0.55;0.17;;;7.80;93.00;;;;;;5055332;28;20025;-71
2022/11/23 02:15:50;;;;;;;1.42;0.20;;;7.70;93.10;;;;;;5059464;28;20056;-71
2022/11/23 02:18:25;;;;;;;0.65;0.13;;;7.90;92.70;;;;;;5060748;28;20024;-71
2022/11/23 02:20:51;;;;;;;0.45;0.10;;;7.80;92.80;;;;;;5059963;28;20063;-71
2022/11/23 02:23:56;;;;;;;0.65;0.17;;;8.00;92.70;;;;;;5058128;28;20021;-71
2022/11/23 02:26:26;;;;;;;0.20;0.10;;;8.10;92.20;;;;;;5059090;28;20068;-71
2022/11/23 02:29:07;;;;;;;0.47;0.28;;;8.10;92.30;;;;;;5058857;28;20029;-71
2022/11/23 02:31:33;;;;;;;0.22;0.10;;;8.00;92.40;;;;;;5052728;28;20033;-71
2022/11/23 02:33:59;;;;;;;0.10;0.10;;;7.70;93.50;;;;;;5058099;28;20557;-71
2022/11/23 02:36:27;;;;;;;0.40;0.10;;;7.30;94.20;;;;;;5054983;28;20036;-71
2022/11/23 02:38:55;;;;;;;0.00;0.00;;;7.00;94.70;;;;;;5058485;28;20397;-71
2022/11/23 02:41:20;;;;;;;0.52;0.10;;;7.00;94.30;;;;;;5057059;28;20036;-71
2022/11/23 02:43:50;;;;;;;0.03;0.00;;;7.00;94.60;;;;;;5055703;28;20032;-71
2022/11/23 02:46:16;;;;;;;0.73;0.28;;;7.00;94.30;;;;;;5052897;28;20028;-71
2022/11/23 02:48:42;;;;;;;0.60;0.22;;;7.20;93.80;;;;;;5067818;28;20036;-71
2022/11/23 02:51:07;;;;;;;1.75;0.20;;;7.20;94.00;;;;;;5064779;28;20490;-71
2022/11/23 02:53:33;;;;;;;0.30;0.10;;;7.40;93.60;;;;;;5048346;28;20102;-71
2022/11/23 02:55:59;;;;;;;0.80;0.10;;;7.30;93.90;;;;;;5056097;28;20126;-71
2022/11/23 02:58:24;;;;;;;1.10;0.22;;;7.10;94.60;;;;;;5051571;28;20029;-71
2022/11/23 03:00:50;;;;;;;1.15;0.30;;;7.00;94.70;;;;;;5052443;28;20024;-71
2022/11/23 03:03:15;;;;;;;0.32;0.17;;;7.00;94.60;;;;;;5056648;28;20111;-71
2022/11/23 03:05:41;;;;;;;1.60;0.20;;;7.00;94.50;;;;;;5051148;28;20487;-71
2022/11/23 03:08:07;;;;;;;1.50;0.20;;;6.70;95.40;;;;;;5057663;28;20055;-71
2022/11/23 03:10:32;;;;;;;0.63;0.10;;;6.50;95.80;;;;;;5052199;28;20036;-71
2022/11/23 03:12:58;;;;;;;0.82;0.22;;;6.70;95.20;;;;;;5051239;28;20112;-71
2022/11/23 03:15:24;;;;;;;0.38;0.10;;;6.60;95.40;;;;;;5053905;28;20127;-71
2022/11/23 03:17:50;;;;;;;0.70;0.10;;;6.60;95.60;;;;;;5056323;28;20021;-71
2022/11/23 03:20:15;;;;;;;0.00;0.00;;;6.40;95.70;;;;;;5058623;28;20081;-71
2022/11/23 03:22:41;;;;;;;0.52;0.10;;;6.30;96.00;;;;;;5055257;28;20025;-71
2022/11/23 03:25:07;;;;;;;0.22;0.10;;;6.40;95.90;;;;;;5057479;28;20023;-71
2022/11/23 03:27:33;;;;;;;0.55;0.10;;;6.30;96.00;;;;;;5059908;28;20526;-71
2022/11/23 03:29:59;;;;;;;0.30;0.00;;;6.50;95.20;;;;;;5062040;28;20043;-71
2022/11/23 03:32:25;;;;;;;0.50;0.03;;;6.30;96.20;;;;;;5058237;28;20411;-70
2022/11/23 03:34:51;;;;;;;0.32;0.22;;;6.20;96.30;;;;;;5047338;28;20036;-71
2022/11/23 03:37:16;;;;;;;0.65;0.20;;;6.80;94.60;;;;;;5053311;28;21137;-71
2022/11/23 03:39:42;;;;;;;0.68;0.08;;;6.70;95.10;;;;;;5060459;28;20032;-71
2022/11/23 03:42:07;;;;;;;0.10;0.00;;;6.30;96.00;;;;;;5034903;28;20042;-71
2022/11/23 03:44:33;;;;;;;0.10;0.00;;;6.30;95.90;;;;;;5062241;28;20025;-71
2022/11/23 03:46:59;;;;;;;0.00;0.00;;;5.90;96.80;;;;;;5060250;28;20517;-71
2022/11/23 03:49:25;;;;;;;0.05;0.00;;;6.50;95.50;;;;;;5057208;28;20029;-71
2022/11/23 03:51:50;;;;;;;0.05;0.00;;;6.50;95.50;;;;;;5069874;28;20119;-72
2022/11/23 03:54:16;;;;;;;0.47;0.20;;;6.30;96.00;;;;;;5055804;28;20033;-71
2022/11/23 03:56:42;;;;;;;0.32;0.10;;;6.40;95.70;;;;;;5053934;28;20072;-71
2022/11/23 03:59:07;;;;;;;0.63;0.13;;;6.10;96.00;;;;;;5062718;28;20029;-71
2022/11/23 04:01:33;;;;;;;1.27;0.15;;;6.00;96.50;;;;;;5058560;28;20025;-72
2022/11/23 04:03:59;;;;;;;0.00;0.00;;;6.00;96.40;;;;;;5051394;28;20582;-70
2022/11/23 04:06:24;;;;;;;0.28;0.10;;;6.20;95.80;;;;;;5057845;28;20028;-71
2022/11/23 04:08:50;;;;;;;0.00;0.00;;;6.00;96.30;;;;;;5056995;28;20039;-71
2022/11/23 04:11:15;;;;;;;2.10;0.17;;;5.90;96.70;;;;;;5054283;28;20120;-70
2022/11/23 04:13:41;;;;;;;0.60;0.15;;;5.80;96.70;;;;;;5045808;28;20104;-71
2022/11/23 04:16:07;;;;;;;0.63;0.20;;;6.10;96.30;;;;;;5054494;28;20491;-71
2022/11/23 04:18:32;;;;;;;0.00;0.00;;;5.90;96.70;;;;;;5054690;28;20048;-71
2022/11/23 04:20:58;;;;;;;0.20;0.10;;;5.90;97.00;;;;;;5045330;28;20082;-71
2022/11/23 04:23:24;;;;;;;1.45;0.13;;;5.70;97.60;;;;;;5063847;28;20082;-72
2022/11/23 04:25:50;;;;;;;0.85;0.28;;;5.60;98.80;;;;;;5059328;28;20039;-70
2022/11/23 04:28:16;;;;;;;0.77;0.20;;;5.40;99.00;;;;;;5059408;28;20123;-71
2022/11/23 04:30:41;;;;;;;1.27;0.25;;;5.30;99.10;;;;;;5051493;28;20033;-71
2022/11/23 04:33:07;;;;;;;2.92;0.10;;;5.30;98.80;;;;;;5048745;28;20028;-71
2022/11/23 04:35:34;;;;;;;0.63;0.30;;;5.30;98.90;;;;;;5047619;28;20174;-71
2022/11/23 04:38:01;;;;;;;2.25;0.10;;;5.70;97.70;;;;;;5044312;28;20029;-71
2022/11/23 04:40:27;;;;;;;0.60;0.22;;;5.70;97.80;;;;;;5059831;28;20032;-71
2022/11/23 04:42:53;;;;;;;0.22;0.10;;;5.60;98.10;;;;;;5045660;28;20043;-72
2022/11/23 04:45:19;;;;;;;0.55;0.20;;;5.60;97.80;;;;;;5047230;28;20021;-71
2022/11/23 04:47:44;;;;;;;1.02;0.30;;;5.50;98.40;;;;;;5051400;28;20064;-71
2022/11/23 04:50:10;;;;;;;0.10;0.10;;;5.40;98.50;;;;;;5050097;28;20088;-71
2022/11/23 04:52:35;;;;;;;1.65;0.60;;;5.30;98.60;;;;;;5058955;28;20041;-71
2022/11/23 04:55:01;;;;;;;0.52;0.20;;;5.40;98.50;;;;;;5043975;28;20032;-71
2022/11/23 04:57:27;;;;;;;0.10;0.10;;;5.10;99.40;;;;;;5043227;28;20036;-71
2022/11/23 04:59:52;;;;;;;0.47;0.10;;;5.40;98.10;;;;;;5056614;28;20043;-71
2022/11/23 05:02:18;;;;;;;2.28;0.25;;;5.50;98.10;;;;;;5052664;28;20041;-71
2022/11/23 05:04:43;;;;;;;0.65;0.20;;;5.50;98.00;;;;;;5048882;28;20044;-71
2022/11/23 05:07:09;;;;;;;0.17;0.10;;;5.50;98.30;;;;;;5054020;28;20074;-71
2022/11/23 05:09:35;;;;;;;0.20;0.20;;;5.40;98.50;;;;;;5059361;28;20052;-71
2022/11/23 05:12:00;;;;;;;0.80;0.20;;;5.40;98.40;;;;;;5048295;28;20128;-71
2022/11/23 05:14:26;;;;;;;0.30;0.10;;;5.40;98.80;;;;;;5050072;28;20383;-71
2022/11/23 05:16:51;;;;;;;1.65;0.10;;;5.30;98.70;;;;;;5052008;28;20044;-70
2022/11/23 05:19:17;;;;;;;0.60;0.10;;;5.00;99.10;;;;;;5050273;28;20078;-71
2022/11/23 05:21:43;;;;;;;0.65;0.20;;;4.90;99.10;;;;;;5050009;28;20016;-71
2022/11/23 05:24:08;;;;;;;0.98;0.22;;;5.00;99.00;;;;;;5056460;28;20504;-71
2022/11/23 05:26:34;;;;;;;0.55;0.20;;;5.30;98.50;;;;;;5053445;28;20060;-71
2022/11/23 05:28:59;;;;;;;1.00;0.25;;;5.10;98.70;;;;;;5055498;28;20024;-71
2022/11/23 05:31:25;;;;;;;0.68;0.15;;;5.30;98.50;;;;;;5048027;28;20040;-71
2022/11/23 05:33:50;;;;;;;0.45;0.17;;;5.40;98.30;;;;;;5055898;28;20127;-72
2022/11/23 05:36:16;;;;;;;0.75;0.25;;;5.40;98.40;;;;;;5048690;28;20065;-71
2022/11/23 05:38:42;;;;;;;0.60;0.10;;;5.30;98.40;;;;;;5048786;28;20102;-71
2022/11/23 05:41:08;;;;;;;0.63;0.22;;;5.20;98.50;;;;;;5043923;28;20560;-72
2022/11/23 05:43:33;;;;;;;5.68;0.47;;;5.40;98.10;;;;;;5053952;28;20046;-71
2022/11/23 05:46:00;;;;;;;2.25;0.30;;;5.50;98.00;;;;;;5048687;28;20114;-71
2022/11/23 05:48:25;;;;;;;0.77;0.20;;;5.20;98.60;;;;;;5059216;28;20036;-71
2022/11/23 05:50:51;;;;;;;0.70;0.10;;;5.40;98.00;;;;;;5054012;28;20487;-71
2022/11/23 05:53:17;;;;;;;0.43;0.20;;;5.30;98.20;;;;;;5042295;28;20048;-71
2022/11/23 05:55:43;;;;;;;0.68;0.22;;;5.30;98.40;;;;;;5052336;28;20043;-71
2022/11/23 05:58:08;;;;;;;0.28;0.10;;;5.20;98.40;;;;;;5052570;28;20032;-71
2022/11/23 06:00:34;;;;;;;0.20;0.10;;;5.20;98.30;;;;;;5050967;28;20116;-71
2022/11/23 06:03:01;;;;;;;0.75;0.20;;;5.30;98.10;;;;;;5042661;28;20072;-71
2022/11/23 06:05:27;;;;;;;0.17;0.10;;;5.10;98.70;;;;;;5056313;28;20112;-71
2022/11/23 06:07:53;;;;;;;0.20;0.10;;;5.10;98.50;;;;;;5057488;28;20026;-71
2022/11/23 06:10:19;;;;;;;1.33;0.50;;;5.20;98.40;;;;;;5050288;28;20029;-71
2022/11/23 06:12:45;;;;;;;0.20;0.10;;;5.00;98.90;;;;;;5056478;28;20033;-71
2022/11/23 06:15:11;;;;;;;0.30;0.10;;;5.10;98.60;;;;;;5051015;28;20029;-71
2022/11/23 06:17:37;;;;;;;0.17;0.10;;;5.20;98.50;;;;;;5048955;28;20044;-71
2022/11/23 06:20:04;;;;;;;0.50;0.13;;;5.30;98.30;;;;;;5056169;28;20033;-71
2022/11/23 06:22:30;;;;;;;3.50;0.30;;;5.30;98.50;;;;;;5047460;28;20021;-71
2022/11/23 06:24:56;;;;;;;0.45;0.22;;;5.20;98.60;;;;;;5041650;28;20029;-71
2022/11/23 06:27:21;;;;;;;0.98;0.22;;;5.00;98.50;;;;;;5053149;28;20040;-71
2022/11/23 06:29:47;;;;;;;1.25;0.20;;;5.00;98.70;;;;;;5050211;28;20430;-69
2022/11/23 06:32:14;;;;;;;2.85;0.20;;;5.00;98.80;;;;;;5045654;28;20043;-70
2022/11/23 06:34:40;;;;;;;0.30;0.10;;;4.90;98.80;;;;;;5049678;28;20479;-69
2022/11/23 06:37:05;;;;;;;0.63;0.20;;;4.80;98.80;;;;;;5040795;28;20040;-69
2022/11/23 06:39:31;;;;;;;0.30;0.10;;;4.70;99.20;;;;;;5050336;28;20032;-71
2022/11/23 06:41:57;;;;;;;0.80;0.40;;;4.60;99.30;;;;;;5051112;28;20020;-71
2022/11/23 06:44:22;;;;;;;0.38;0.17;;;4.70;99.20;;;;;;5044171;28;20033;-71
2022/11/23 06:46:48;;;;;;;0.10;0.10;;;4.80;98.90;;;;;;5049565;28;20032;-71
2022/11/23 06:49:14;;;;;;;0.30;0.20;;;4.90;98.90;;;;;;5046068;28;20025;-71
2022/11/23 06:51:40;;;;;;;2.05;0.30;;;4.90;98.90;;;;;;5046219;28;20467;-71
2022/11/23 06:54:06;;;;;;;0.63;0.30;;;4.90;99.30;;;;;;5050019;28;20107;-71
2022/11/23 06:56:31;;;;;;;1.23;0.40;;;5.00;99.40;;;;;;5041006;28;20076;-70
2022/11/23 06:58:57;;;;;;;3.75;1.08;;;5.10;99.10;;;;;;5053429;28;20025;-71
2022/11/23 07:01:22;;;;;;;0.47;0.20;;;4.90;99.80;;;;;;5057221;28;20032;-71
2022/11/23 07:03:48;;;;;;;1.52;0.30;;;4.80;99.40;;;;;;5054980;28;20043;-71
2022/11/23 07:06:14;;;;;;;1.52;0.55;;;4.80;99.40;;;;;;5053815;28;20074;-71
2022/11/23 07:08:42;;;;;;;1.08;0.60;;;4.90;99.20;;;;;;5049821;28;20020;-71
2022/11/23 07:11:09;;;;;;;1.65;0.45;;;5.00;99.40;;;;;;5044523;28;20036;-71
2022/11/23 07:13:36;;;;;;;0.85;0.50;;;5.00;98.90;;;;;;5046156;28;20508;-71
2022/11/23 07:16:02;;;;;;;3.55;1.23;;;5.00;99.40;;;;;;5055753;28;20110;-70
2022/11/23 07:18:28;;;;;;;1.42;0.70;;;4.90;99.90;;;;;;5050480;28;20064;-70
2022/11/23 07:20:55;;;;;;;0.55;0.32;;;4.70;99.90;;;;;;5053825;28;20024;-70
2022/11/23 07:23:21;;;;;;;1.60;0.57;;;4.50;99.90;;;;;;5041752;28;20128;-70
2022/11/23 07:25:47;;;;;;;2.67;0.55;;;4.60;99.90;;;;;;5056361;28;20119;-71
2022/11/23 07:28:13;;;;;;;0.90;0.50;;;4.60;99.90;;;;;;5051822;28;20017;-70
2022/11/23 07:30:39;;;;;;;0.88;0.40;;;4.70;99.90;;;;;;5059945;28;20053;-70
2022/11/23 07:33:10;;;;;;;0.50;0.40;;;4.60;99.90;;;;;;5048055;28;20133;-70
2022/11/23 07:35:37;;;;;;;0.77;0.38;;;4.50;99.90;;;;;;5055108;28;20036;-71
2022/11/23 07:38:06;;;;;;;0.88;0.25;;;4.50;99.90;;;;;;5052098;28;20668;-70
2022/11/23 07:40:33;;;;;;;1.55;0.57;;;4.40;99.90;;;;;;5042438;28;20040;-70
2022/11/23 07:43:01;;;;;;;4.53;0.75;;;4.50;99.90;;;;;;5047082;28;20033;-71
2022/11/23 07:45:27;;;;;;;4.00;1.10;;;4.40;99.90;;;;;;5050523;28;20077;-71
2022/11/23 07:48:07;;;;;;;3.67;1.27;;;4.30;99.90;;;;;;5047376;28;20130;-71
2022/11/23 07:50:33;;;;;;;2.15;1.20;;;4.30;99.90;;;;;;5043806;28;20103;-71
2022/11/23 07:53:01;;;;;;;1.17;0.47;;;4.20;99.90;;;;;;5045583;28;20051;-71
2022/11/23 07:55:27;;;;;;;1.00;0.40;;;4.30;99.90;;;;;;5049818;28;20626;-71
2022/11/23 07:57:54;;;;;;;2.38;0.95;;;4.30;99.90;;;;;;5047278;28;20136;-71
2022/11/23 08:00:21;;;;;;;1.75;0.73;;;4.20;99.90;;;;;;5045088;28;20029;-71
2022/11/23 08:02:47;;;;;;;1.52;0.50;;;4.20;99.90;;;;;;5052103;28;20475;-71
2022/11/23 08:05:14;;;;;;;1.65;0.80;;;4.30;99.90;;;;;;5044597;28;20028;-71
2022/11/23 08:07:39;;;;;;;1.73;0.70;;;4.30;99.90;;;;;;5052639;28;20059;-71
2022/11/23 08:10:05;;;;;;;1.27;0.50;;;4.50;99.90;;;;;;5048146;28;20119;-71
2022/11/23 08:12:31;;;;;;;2.42;0.98;;;4.40;99.90;;;;;;5051454;28;20029;-70
2022/11/23 08:14:57;;;;;;;2.83;0.95;;;4.30;99.90;;;;;;5052839;28;20731;-71
2022/11/23 08:17:22;;;;;;;2.92;1.23;;;4.10;99.90;;;;;;5052070;28;20569;-71
2022/11/23 08:19:48;;;;;;;3.38;0.80;;;4.30;99.90;;;;;;5055184;28;20536;-71
2022/11/23 08:22:13;;;;;;;2.90;0.80;;;4.20;99.90;;;;;;5051680;28;20032;-71
2022/11/23 08:24:39;;;;;;;8.63;2.00;;;4.30;99.90;;;;;;5047206;28;20033;-71
2022/11/23 08:27:05;;;;;;;2.38;0.93;;;4.20;99.90;;;;;;5050087;28;20040;-71
2022/11/23 08:29:30;;;;;;;8.25;4.00;;;4.20;99.90;;;;;;5050749;28;20087;-71
2022/11/23 08:31:56;;;;;;;4.95;1.70;;;4.20;99.90;;;;;;5052525;28;20021;-71
2022/11/23 08:34:22;;;;;;;4.30;1.80;;;4.40;99.90;;;;;;5045908;28;20033;-70
2022/11/23 08:36:47;;;;;;;3.55;0.88;;;4.50;99.90;;;;;;5055748;28;21076;-71
2022/11/23 08:39:14;;;;;;;7.10;3.63;;;4.40;99.90;;;;;;5054090;28;20181;-70
2022/11/23 08:41:40;;;;;;;3.22;1.50;;;4.40;99.90;;;;;;5055958;28;20107;-71
2022/11/23 08:44:08;;;;;;;3.03;1.10;;;4.30;99.90;;;;;;5053752;28;20071;-70
2022/11/23 08:46:34;;;;;;;1.35;0.60;;;4.80;99.90;;;;;;5052114;28;20597;-71
2022/11/23 08:49:00;;;;;;;8.15;4.32;;;4.70;99.90;;;;;;5045064;28;20032;-71
2022/11/23 08:51:25;;;;;;;3.30;1.55;;;4.70;99.90;;;;;;5054496;28;20123;-71
2022/11/23 08:53:51;;;;;;;49.25;25.40;;;4.60;99.90;;;;;;5044845;28;20036;-71
2022/11/23 08:56:17;;;;;;;160.75;84.07;;;4.60;99.90;;;;;;5054262;28;20563;-70
2022/11/23 08:58:43;;;;;;;87.50;45.45;;;4.60;99.90;;;;;;5048550;28;20087;-71
2022/11/23 09:01:10;;;;;;;157.00;74.47;;;4.60;99.90;;;;;;5051219;28;20028;-71
2022/11/23 09:03:35;;;;;;;124.55;58.30;;;4.60;99.90;;;;;;5044531;28;20040;-71
2022/11/23 09:06:01;;;;;;;53.90;25.25;;;4.50;99.90;;;;;;5042671;28;20029;-71
2022/11/23 09:08:27;;;;;;;32.58;16.35;;;4.50;99.90;;;;;;5051045;28;20023;-71
2022/11/23 09:10:53;;;;;;;24.45;12.50;;;4.50;99.90;;;;;;5050259;28;20029;-71
2022/11/23 09:13:19;;;;;;;14.10;5.82;;;4.40;99.90;;;;;;5053404;28;20058;-71
2022/11/23 09:15:45;;;;;;;3.85;2.10;;;4.50;99.90;;;;;;5052773;28;20041;-71
2022/11/23 09:18:10;;;;;;;3.05;1.25;;;4.20;99.90;;;;;;5050165;28;20079;-71
2022/11/23 09:20:38;;;;;;;17.75;7.65;;;4.40;99.90;;;;;;5052472;28;20055;-71
2022/11/23 09:23:04;;;;;;;4.45;1.73;;;4.50;99.90;;;;;;5053057;28;20060;-70
2022/11/23 09:25:30;;;;;;;12.60;6.50;;;4.40;99.90;;;;;;5052857;28;20052;-71
2022/11/23 09:27:58;;;;;;;10.25;5.97;;;4.50;99.90;;;;;;5050145;28;20479;-71
2022/11/23 09:30:24;;;;;;;8.45;4.00;;;4.50;99.90;;;;;;5056064;28;20033;-71
2022/11/23 09:32:50;;;;;;;3.42;1.58;;;4.60;99.90;;;;;;5042962;28;20025;-71
2022/11/23 09:35:15;;;;;;;4.80;1.00;;;4.60;99.90;;;;;;5057301;28;20520;-71
2022/11/23 09:37:41;;;;;;;4.72;0.90;;;4.50;99.90;;;;;;5051592;28;20487;-71
2022/11/23 09:40:13;;;;;;;3.10;1.13;;;4.50;99.90;;;;;;5046796;28;20047;-73
2022/11/23 09:42:56;;;;;;;1.85;0.85;;;4.60;99.90;;;;;;5044847;28;20029;-74
2022/11/23 09:45:38;;;;;;;3.25;1.45;;;4.60;99.90;;;;;;5050099;28;20033;-72
2022/11/23 09:48:13;;;;;;;4.63;2.03;;;4.70;99.90;;;;;;5061507;28;20043;-71
2022/11/23 09:50:44;;;;;;;;;;;4.70;99.90;;;;;;5056255;28;20048;-71
2022/11/23 09:53:33;;;;;;;2.40;1.17;;;4.60;99.90;;;;;;5053064;28;19916;-71
2022/11/23 09:56:00;;;;;;;1.95;0.68;;;4.70;99.90;;;;;;5047918;28;20060;-72
2022/11/23 09:58:35;;;;;;;3.05;1.00;;;4.70;99.90;;;;;;5046812;28;20492;-70
2022/11/23 10:01:04;;;;;;;2.45;0.77;;;4.70;99.90;;;;;;5053556;28;20318;-72
2022/11/23 10:03:39;;;;;;;1.48;0.98;;;4.60;99.90;;;;;;5053211;28;20029;-71
2022/11/23 10:06:11;;;;;;;2.75;0.95;;;4.70;99.90;;;;;;5042877;28;20048;-72
2022/11/23 10:08:54;;;;;;;1.77;1.20;;;4.80;99.90;;;;;;5051326;28;20029;-71
2022/11/23 10:11:33;;;;;;;4.25;1.08;;;4.80;99.90;;;;;;5050486;28;20036;-72
2022/11/23 10:14:24;;;;;;;3.05;1.13;;;4.90;99.90;;;;;;5052657;28;20078;-72
2022/11/23 10:17:14;;;;;;;3.42;0.80;;;5.30;99.90;;;;;;5041178;28;20579;-70
2022/11/23 10:20:10;;;;;;;2.75;1.00;;;5.90;99.90;;;;;;5055559;28;20040;-71
2022/11/23 10:22:47;;;;;;;2.30;0.90;;;5.60;99.90;;;;;;5053085;28;20386;-70
2022/11/23 10:25:17;;;;;;;4.38;1.23;;;5.60;99.90;;;;;;5051772;28;20586;-71
2022/11/23 10:27:47;;;;;;;2.92;1.30;;;5.60;99.90;;;;;;5039791;28;20029;-71
2022/11/23 10:30:14;;;;;;;4.75;1.90;;;5.70;99.90;;;;;;5050617;28;20474;-71
2022/11/23 10:32:51;;;;;;;3.72;1.45;;;5.80;99.90;;;;;;5049890;28;20020;-71
2022/11/23 10:35:32;;;;;;;4.45;1.38;;;5.90;99.90;;;;;;5051346;28;20032;-71
2022/11/23 10:38:10;;;;;;;2.90;1.33;;;6.00;99.90;;;;;;5050853;28;20043;-71
2022/11/23 10:40:43;;;;;;;2.78;1.10;;;6.20;99.90;;;;;;5052496;28;20352;-70
2022/11/23 10:43:24;;;;;;;1.92;1.10;;;6.30;99.90;;;;;;5048413;28;20117;-70
2022/11/23 10:45:49;;;;;;;4.35;1.55;;;6.50;99.90;;;;;;5039574;28;20053;-70
2022/11/23 10:48:33;;;;;;;3.05;1.17;;;6.60;99.90;;;;;;5047228;28;20128;-70
2022/11/23 10:51:25;;;;;;;4.03;1.73;;;6.60;99.90;;;;;;5048387;28;20112;-71
2022/11/23 10:53:58;;;;;;;9.70;5.88;;;6.80;99.90;;;;;;5045694;28;20106;-71
2022/11/23 10:56:24;;;;;;;6.73;3.80;;;6.90;99.90;;;;;;5053537;28;20037;-70
2022/11/23 10:58:50;;;;;;;4.57;2.63;;;7.10;99.90;;;;;;5047456;28;20037;-71
2022/11/23 11:01:23;;;;;;;4.45;2.33;;;7.10;99.90;;;;;;5051513;28;20025;-70
2022/11/23 11:03:53;;;;;;;5.13;2.20;;;7.10;99.90;;;;;;5047251;28;20320;-70
2022/11/23 11:06:27;;;;;;;6.18;2.63;;;7.20;99.90;;;;;;5042222;28;20036;-71
2022/11/23 11:08:55;;;;;;;8.65;7.07;;;7.40;99.90;;;;;;5051603;28;20353;-71
2022/11/23 11:11:29;;;;;;;5.30;3.92;;;7.60;99.90;;;;;;5049603;28;20035;-71
2022/11/23 11:14:23;;;;;;;5.20;2.47;;;7.70;99.40;;;;;;5050599;28;20041;-71
2022/11/23 11:16:54;;;;;;;7.03;1.73;;;7.80;99.00;;;;;;5051428;28;20564;-71
2022/11/23 11:19:27;;;;;;;6.50;2.63;;;8.00;99.40;;;;;;5054591;28;20278;-71
2022/11/23 11:21:53;;;;;;;22.88;17.65;;;8.10;99.50;;;;;;5052172;28;20071;-71
2022/11/23 11:24:43;;;;;;;8.80;2.22;;;8.50;99.00;;;;;;5050787;28;20089;-71
2022/11/23 11:27:14;;;;;;;3.22;1.73;;;8.60;98.60;;;;;;5068737;28;20372;-71
2022/11/23 11:29:42;;;;;;;3.17;1.10;;;8.50;98.30;;;;;;5058505;28;20586;-71
2022/11/23 11:32:49;;;;;;;7.15;4.55;;;8.50;97.90;;;;;;5057595;28;20024;-71
2022/11/23 11:35:14;;;;;;;5.05;2.40;;;8.80;98.40;;;;;;5051762;28;20487;-71
2022/11/23 11:37:43;;;;;;;2.75;1.40;;;8.90;98.40;;;;;;5049194;28;20043;-71
2022/11/23 11:40:15;;;;;;;3.58;1.20;;;8.90;98.30;;;;;;5060756;28;20037;-71
2022/11/23 11:43:09;;;;;;;2.20;0.90;;;8.80;97.50;;;;;;5057479;28;20115;-71
2022/11/23 11:45:42;;;;;;;4.00;1.27;;;8.80;97.10;;;;;;5051564;28;20061;-71
2022/11/23 11:48:16;;;;;;;9.93;2.67;;;8.90;97.00;;;;;;5052719;28;20382;-71
2022/11/23 11:51:19;;;;;;;3.70;2.05;;;9.10;97.00;;;;;;5051187;28;20032;-71
2022/11/23 11:54:14;;;;;;;2.92;1.05;;;9.10;96.80;;;;;;5059669;28;20071;-70
2022/11/23 11:56:48;;;;;;;2.65;1.00;;;9.10;96.30;;;;;;5032284;28;20124;-71
2022/11/23 11:59:51;;;;;;;2.95;1.15;;;9.10;96.40;;;;;;5059964;28;20028;-72
2022/11/23 12:02:24;;;;;;;2.55;1.30;;;9.20;96.20;;;;;;5044169;28;20133;-70
2022/11/23 12:05:24;;;;;;;1.98;0.88;;;9.20;95.90;;;;;;5052992;28;20035;-71
2022/11/23 12:08:01;;;;;;;5.88;1.58;;;9.10;95.80;;;;;;5053949;28;20501;-71
2022/11/23 12:10:40;;;;;;;2.33;1.17;;;9.20;95.90;;;;;;5053090;28;20489;-71
2022/11/23 12:13:13;;;;;;;2.53;0.85;;;9.30;95.70;;;;;;5047292;28;20036;-71
2022/11/23 12:15:47;;;;;;;6.68;1.13;;;9.30;96.00;;;;;;5050793;28;20035;-71
2022/11/23 12:18:39;;;;;;;3.15;1.15;;;9.50;95.90;;;;;;5052372;28;20068;-71
2022/11/23 12:21:34;;;;;;;3.30;1.55;;;9.50;95.80;;;;;;5052869;28;20139;-71
2022/11/23 12:24:41;;;;;;;8.43;2.25;;;9.70;95.70;;;;;;5053603;28;20600;-71
2022/11/23 12:27:19;;;;;;;5.00;1.70;;;9.80;95.80;;;;;;5058320;28;20032;-70
2022/11/23 12:30:03;;;;;;;8.00;1.58;;;9.90;96.20;;;;;;5049546;28;20016;-71
2022/11/23 12:32:52;;;;;;;2.45;1.20;;;9.90;96.20;;;;;;5048687;28;20045;-70
2022/11/23 12:35:50;;;;;;;3.08;1.17;;;9.70;95.80;;;;;;5043779;28;20044;-71
2022/11/23 12:38:38;;;;;;;3.45;1.25;;;9.60;95.90;;;;;;5016122;28;20098;-70
2022/11/23 12:41:15;;;;;;;2.08;1.00;;;9.50;95.40;;;;;;5053186;28;20038;-71
2022/11/23 12:43:49;;;;;;;4.22;1.27;;;9.40;95.70;;;;;;5052560;28;20086;-70
2022/11/23 12:46:26;;;;;;;3.20;1.20;;;9.50;96.20;;;;;;5047814;28;20452;-71
2022/11/23 12:48:58;;;;;;;2.67;1.15;;;9.50;95.80;;;;;;5054367;28;20128;-71
2022/11/23 12:51:54;;;;;;;3.45;1.10;;;9.50;95.10;;;;;;5055872;28;20040;-72
2022/11/23 12:54:43;;;;;;;2.25;1.00;;;9.60;95.10;;;;;;5050731;28;20514;-72
2022/11/23 12:57:17;;;;;;;14.93;8.50;;;9.60;94.50;;;;;;5053937;28;20033;-71
2022/11/23 13:00:04;;;;;;;5.68;3.60;;;9.80;94.70;;;;;;5049070;28;20064;-72
2022/11/23 13:02:48;;;;;;;96.13;62.95;;;9.80;95.00;;;;;;5045918;28;20033;-71
2022/11/23 13:05:45;;;;;;;44.97;32.33;;;10.00;95.00;;;;;;5048713;28;20037;-71
2022/11/23 13:08:29;;;;;;;8.43;5.13;;;10.00;95.00;;;;;;5051384;28;20607;-72
2022/11/23 13:11:16;;;;;;;5.90;2.58;;;9.90;95.00;;;;;;5049541;28;20036;-71